Aviation Digital Data Service (ADDS)

Output produced by METARs form (2248 UTC 31 October 2014)
found at http://aviationweather.gov/adds/metars/
 
KHUL 311740Z 3118/0118 00000KT P6SM BKN050 
     FM011000 04007KT P6SM SCT025 OVC040 
     FM011500 04009KT P6SM BKN025